sensor_id;sensor_type;location;lat;lon;timestamp;P1;durP1;ratioP1;P2;durP2;ratioP2
11955;SDS011;6038;52.276;10.530;2022-09-09T00:00:15;4.17;;;2.20;;
11955;SDS011;6038;52.276;10.530;2022-09-09T00:02:47;5.53;;;2.77;;
11955;SDS011;6038;52.276;10.530;2022-09-09T00:08:25;3.60;;;2.40;;
11955;SDS011;6038;52.276;10.530;2022-09-09T00:10:54;8.47;;;2.47;;
11955;SDS011;6038;52.276;10.530;2022-09-09T00:16:25;3.93;;;2.40;;
11955;SDS011;6038;52.276;10.530;2022-09-09T00:19:15;3.60;;;2.20;;
11955;SDS011;6038;52.276;10.530;2022-09-09T00:27:19;7.23;;;2.23;;
11955;SDS011;6038;52.276;10.530;2022-09-09T00:32:18;3.20;;;1.80;;
11955;SDS011;6038;52.276;10.530;2022-09-09T00:34:56;2.57;;;2.10;;
11955;SDS011;6038;52.276;10.530;2022-09-09T00:37:22;2.40;;;1.60;;
11955;SDS011;6038;52.276;10.530;2022-09-09T00:39:51;2.63;;;1.70;;
11955;SDS011;6038;52.276;10.530;2022-09-09T00:42:41;2.83;;;1.70;;
11955;SDS011;6038;52.276;10.530;2022-09-09T00:45:33;2.10;;;1.67;;
11955;SDS011;6038;52.276;10.530;2022-09-09T00:47:52;3.00;;;1.90;;
11955;SDS011;6038;52.276;10.530;2022-09-09T00:58:14;3.03;;;1.30;;
11955;SDS011;6038;52.276;10.530;2022-09-09T01:00:42;1.73;;;1.40;;
11955;SDS011;6038;52.276;10.530;2022-09-09T01:06:14;3.73;;;1.40;;
11955;SDS011;6038;52.276;10.530;2022-09-09T01:12:12;2.53;;;1.30;;
11955;SDS011;6038;52.276;10.530;2022-09-09T01:14:24;1.57;;;1.10;;
11955;SDS011;6038;52.276;10.530;2022-09-09T01:16:57;1.73;;;1.13;;
11955;SDS011;6038;52.276;10.530;2022-09-09T01:19:27;1.80;;;1.13;;
11955;SDS011;6038;52.276;10.530;2022-09-09T01:22:06;1.90;;;1.10;;
11955;SDS011;6038;52.276;10.530;2022-09-09T01:27:03;2.13;;;1.20;;
11955;SDS011;6038;52.276;10.530;2022-09-09T01:29:31;4.43;;;1.30;;
11955;SDS011;6038;52.276;10.530;2022-09-09T01:32:02;2.20;;;1.00;;
11955;SDS011;6038;52.276;10.530;2022-09-09T01:34:33;1.80;;;1.10;;
11955;SDS011;6038;52.276;10.530;2022-09-09T01:37:10;1.37;;;1.10;;
11955;SDS011;6038;52.276;10.530;2022-09-09T01:39:38;2.47;;;1.37;;
11955;SDS011;6038;52.276;10.530;2022-09-09T01:42:05;1.57;;;1.30;;
11955;SDS011;6038;52.276;10.530;2022-09-09T01:44:31;4.10;;;1.30;;
11955;SDS011;6038;52.276;10.530;2022-09-09T01:46:58;1.40;;;1.17;;
11955;SDS011;6038;52.276;10.530;2022-09-09T01:49:24;1.77;;;1.40;;
11955;SDS011;6038;52.276;10.530;2022-09-09T01:51:51;2.70;;;1.20;;
11955;SDS011;6038;52.276;10.530;2022-09-09T01:54:19;1.30;;;1.20;;
11955;SDS011;6038;52.276;10.530;2022-09-09T02:06:59;4.07;;;1.20;;
11955;SDS011;6038;52.276;10.530;2022-09-09T02:09:25;2.80;;;1.30;;
11955;SDS011;6038;52.276;10.530;2022-09-09T02:11:54;2.97;;;1.20;;
11955;SDS011;6038;52.276;10.530;2022-09-09T02:14:23;1.33;;;1.00;;
11955;SDS011;6038;52.276;10.530;2022-09-09T02:16:59;2.53;;;1.40;;
11955;SDS011;6038;52.276;10.530;2022-09-09T02:19:30;4.32;;;1.42;;
11955;SDS011;6038;52.276;10.530;2022-09-09T02:21:57;1.50;;;1.37;;
11955;SDS011;6038;52.276;10.530;2022-09-09T02:24:25;3.60;;;1.27;;
11955;SDS011;6038;52.276;10.530;2022-09-09T02:26:52;1.70;;;1.20;;
11955;SDS011;6038;52.276;10.530;2022-09-09T02:29:20;1.47;;;1.00;;
11955;SDS011;6038;52.276;10.530;2022-09-09T02:31:47;2.93;;;1.50;;
11955;SDS011;6038;52.276;10.530;2022-09-09T02:34:15;2.20;;;1.10;;
11955;SDS011;6038;52.276;10.530;2022-09-09T02:36:43;2.70;;;1.20;;
11955;SDS011;6038;52.276;10.530;2022-09-09T02:39:11;7.73;;;1.60;;
11955;SDS011;6038;52.276;10.530;2022-09-09T02:41:39;3.97;;;1.40;;
11955;SDS011;6038;52.276;10.530;2022-09-09T02:44:13;2.40;;;1.30;;
11955;SDS011;6038;52.276;10.530;2022-09-09T02:49:10;2.10;;;1.20;;
11955;SDS011;6038;52.276;10.530;2022-09-09T02:54:25;2.97;;;1.30;;
11955;SDS011;6038;52.276;10.530;2022-09-09T02:56:55;2.87;;;1.30;;
11955;SDS011;6038;52.276;10.530;2022-09-09T02:59:22;4.17;;;1.30;;
11955;SDS011;6038;52.276;10.530;2022-09-09T03:01:50;1.33;;;1.20;;
11955;SDS011;6038;52.276;10.530;2022-09-09T03:04:16;2.63;;;1.40;;
11955;SDS011;6038;52.276;10.530;2022-09-09T03:06:42;3.67;;;1.10;;
11955;SDS011;6038;52.276;10.530;2022-09-09T03:09:08;5.30;;;1.37;;
11955;SDS011;6038;52.276;10.530;2022-09-09T03:11:35;5.03;;;1.40;;
11955;SDS011;6038;52.276;10.530;2022-09-09T03:14:01;4.40;;;1.50;;
11955;SDS011;6038;52.276;10.530;2022-09-09T03:16:27;2.50;;;1.23;;
11955;SDS011;6038;52.276;10.530;2022-09-09T03:18:53;2.37;;;1.30;;
11955;SDS011;6038;52.276;10.530;2022-09-09T03:21:19;2.87;;;1.30;;
11955;SDS011;6038;52.276;10.530;2022-09-09T03:23:45;3.10;;;1.50;;
11955;SDS011;6038;52.276;10.530;2022-09-09T03:26:11;2.43;;;1.10;;
11955;SDS011;6038;52.276;10.530;2022-09-09T03:28:40;2.07;;;1.33;;
11955;SDS011;6038;52.276;10.530;2022-09-09T03:31:06;2.30;;;1.30;;
11955;SDS011;6038;52.276;10.530;2022-09-09T03:33:35;2.33;;;1.40;;
11955;SDS011;6038;52.276;10.530;2022-09-09T03:36:02;4.13;;;1.47;;
11955;SDS011;6038;52.276;10.530;2022-09-09T03:38:28;3.00;;;1.40;;
11955;SDS011;6038;52.276;10.530;2022-09-09T03:40:54;3.50;;;1.60;;
11955;SDS011;6038;52.276;10.530;2022-09-09T03:43:22;3.00;;;1.50;;
11955;SDS011;6038;52.276;10.530;2022-09-09T03:45:48;3.93;;;1.60;;
11955;SDS011;6038;52.276;10.530;2022-09-09T03:48:14;3.27;;;1.43;;
11955;SDS011;6038;52.276;10.530;2022-09-09T03:50:44;3.93;;;1.50;;
11955;SDS011;6038;52.276;10.530;2022-09-09T03:53:10;2.97;;;1.50;;
11955;SDS011;6038;52.276;10.530;2022-09-09T03:55:37;2.93;;;1.43;;
11955;SDS011;6038;52.276;10.530;2022-09-09T03:58:02;3.80;;;1.50;;
11955;SDS011;6038;52.276;10.530;2022-09-09T04:00:28;3.47;;;1.60;;
11955;SDS011;6038;52.276;10.530;2022-09-09T04:02:55;2.23;;;1.30;;
11955;SDS011;6038;52.276;10.530;2022-09-09T04:05:22;1.87;;;1.30;;
11955;SDS011;6038;52.276;10.530;2022-09-09T04:07:48;1.83;;;1.40;;
11955;SDS011;6038;52.276;10.530;2022-09-09T04:10:16;3.57;;;1.50;;
11955;SDS011;6038;52.276;10.530;2022-09-09T04:12:42;2.80;;;1.50;;
11955;SDS011;6038;52.276;10.530;2022-09-09T04:15:09;4.03;;;1.27;;
11955;SDS011;6038;52.276;10.530;2022-09-09T04:17:35;2.63;;;1.37;;
11955;SDS011;6038;52.276;10.530;2022-09-09T04:20:01;1.40;;;1.30;;
11955;SDS011;6038;52.276;10.530;2022-09-09T04:22:27;3.70;;;1.50;;
11955;SDS011;6038;52.276;10.530;2022-09-09T04:24:53;4.37;;;1.50;;
11955;SDS011;6038;52.276;10.530;2022-09-09T04:27:20;2.20;;;1.40;;
11955;SDS011;6038;52.276;10.530;2022-09-09T04:29:46;2.60;;;1.57;;
11955;SDS011;6038;52.276;10.530;2022-09-09T04:32:12;4.57;;;1.60;;
11955;SDS011;6038;52.276;10.530;2022-09-09T04:34:38;5.33;;;1.30;;
11955;SDS011;6038;52.276;10.530;2022-09-09T04:37:04;4.00;;;1.50;;
11955;SDS011;6038;52.276;10.530;2022-09-09T04:39:30;7.47;;;1.80;;
11955;SDS011;6038;52.276;10.530;2022-09-09T04:41:56;2.90;;;1.63;;
11955;SDS011;6038;52.276;10.530;2022-09-09T04:44:22;4.10;;;1.53;;
11955;SDS011;6038;52.276;10.530;2022-09-09T04:46:48;3.03;;;1.60;;
11955;SDS011;6038;52.276;10.530;2022-09-09T04:49:14;3.10;;;1.43;;
11955;SDS011;6038;52.276;10.530;2022-09-09T04:51:40;2.47;;;1.63;;
11955;SDS011;6038;52.276;10.530;2022-09-09T04:54:06;7.70;;;1.77;;
11955;SDS011;6038;52.276;10.530;2022-09-09T04:56:32;4.27;;;1.60;;
11955;SDS011;6038;52.276;10.530;2022-09-09T04:58:58;3.20;;;1.90;;
11955;SDS011;6038;52.276;10.530;2022-09-09T05:01:25;2.70;;;1.90;;
11955;SDS011;6038;52.276;10.530;2022-09-09T05:03:52;6.57;;;1.90;;
11955;SDS011;6038;52.276;10.530;2022-09-09T05:06:19;4.87;;;2.07;;
11955;SDS011;6038;52.276;10.530;2022-09-09T05:08:45;6.93;;;1.70;;
11955;SDS011;6038;52.276;10.530;2022-09-09T05:13:41;3.60;;;1.90;;
11955;SDS011;6038;52.276;10.530;2022-09-09T05:16:07;3.63;;;1.70;;
11955;SDS011;6038;52.276;10.530;2022-09-09T05:18:36;3.70;;;1.60;;
11955;SDS011;6038;52.276;10.530;2022-09-09T05:21:02;4.40;;;1.80;;
11955;SDS011;6038;52.276;10.530;2022-09-09T05:23:28;3.53;;;1.70;;
11955;SDS011;6038;52.276;10.530;2022-09-09T05:25:57;4.77;;;1.70;;
11955;SDS011;6038;52.276;10.530;2022-09-09T05:28:26;2.87;;;1.80;;
11955;SDS011;6038;52.276;10.530;2022-09-09T05:30:59;3.83;;;1.30;;
11955;SDS011;6038;52.276;10.530;2022-09-09T05:33:26;3.33;;;1.70;;
11955;SDS011;6038;52.276;10.530;2022-09-09T05:35:59;4.40;;;1.80;;
11955;SDS011;6038;52.276;10.530;2022-09-09T05:38:26;4.70;;;1.70;;
11955;SDS011;6038;52.276;10.530;2022-09-09T05:40:53;3.33;;;1.80;;
11955;SDS011;6038;52.276;10.530;2022-09-09T05:43:19;3.77;;;2.03;;
11955;SDS011;6038;52.276;10.530;2022-09-09T05:45:48;4.13;;;1.60;;
11955;SDS011;6038;52.276;10.530;2022-09-09T05:48:27;4.67;;;1.80;;
11955;SDS011;6038;52.276;10.530;2022-09-09T05:50:53;3.47;;;1.60;;
11955;SDS011;6038;52.276;10.530;2022-09-09T05:53:19;4.23;;;1.90;;
11955;SDS011;6038;52.276;10.530;2022-09-09T05:55:45;7.03;;;1.90;;
11955;SDS011;6038;52.276;10.530;2022-09-09T05:58:12;5.33;;;1.50;;
11955;SDS011;6038;52.276;10.530;2022-09-09T06:00:41;4.73;;;1.80;;
11955;SDS011;6038;52.276;10.530;2022-09-09T06:03:10;3.27;;;1.57;;
11955;SDS011;6038;52.276;10.530;2022-09-09T06:05:36;3.13;;;1.70;;
11955;SDS011;6038;52.276;10.530;2022-09-09T06:08:03;5.10;;;1.77;;
11955;SDS011;6038;52.276;10.530;2022-09-09T06:10:29;5.00;;;1.87;;
11955;SDS011;6038;52.276;10.530;2022-09-09T06:12:55;3.90;;;1.50;;
11955;SDS011;6038;52.276;10.530;2022-09-09T06:15:21;6.43;;;1.67;;
11955;SDS011;6038;52.276;10.530;2022-09-09T06:17:47;3.97;;;1.70;;
11955;SDS011;6038;52.276;10.530;2022-09-09T06:20:14;3.43;;;1.70;;
11955;SDS011;6038;52.276;10.530;2022-09-09T06:22:40;4.33;;;1.73;;
11955;SDS011;6038;52.276;10.530;2022-09-09T06:25:07;4.10;;;1.63;;
11955;SDS011;6038;52.276;10.530;2022-09-09T06:27:33;5.13;;;1.60;;
11955;SDS011;6038;52.276;10.530;2022-09-09T06:29:59;4.57;;;2.33;;
11955;SDS011;6038;52.276;10.530;2022-09-09T06:32:25;4.30;;;1.43;;
11955;SDS011;6038;52.276;10.530;2022-09-09T06:34:51;3.90;;;1.87;;
11955;SDS011;6038;52.276;10.530;2022-09-09T06:37:17;4.20;;;1.70;;
11955;SDS011;6038;52.276;10.530;2022-09-09T06:39:43;3.57;;;1.80;;
11955;SDS011;6038;52.276;10.530;2022-09-09T06:42:09;7.03;;;1.83;;
11955;SDS011;6038;52.276;10.530;2022-09-09T06:44:35;4.00;;;1.67;;
11955;SDS011;6038;52.276;10.530;2022-09-09T06:47:01;4.50;;;1.93;;
11955;SDS011;6038;52.276;10.530;2022-09-09T06:49:28;2.70;;;1.60;;
11955;SDS011;6038;52.276;10.530;2022-09-09T06:51:54;4.27;;;1.70;;
11955;SDS011;6038;52.276;10.530;2022-09-09T06:54:20;5.53;;;1.70;;
11955;SDS011;6038;52.276;10.530;2022-09-09T06:56:47;4.63;;;1.90;;
11955;SDS011;6038;52.276;10.530;2022-09-09T06:59:14;4.17;;;1.77;;
11955;SDS011;6038;52.276;10.530;2022-09-09T07:01:41;4.63;;;1.90;;
11955;SDS011;6038;52.276;10.530;2022-09-09T07:04:16;5.70;;;1.90;;
11955;SDS011;6038;52.276;10.530;2022-09-09T07:06:43;3.93;;;1.97;;
11955;SDS011;6038;52.276;10.530;2022-09-09T07:09:11;5.27;;;1.90;;
11955;SDS011;6038;52.276;10.530;2022-09-09T07:11:41;4.83;;;2.00;;
11955;SDS011;6038;52.276;10.530;2022-09-09T07:14:08;4.40;;;1.80;;
11955;SDS011;6038;52.276;10.530;2022-09-09T07:16:34;3.70;;;1.90;;
11955;SDS011;6038;52.276;10.530;2022-09-09T07:19:02;6.67;;;1.83;;
11955;SDS011;6038;52.276;10.530;2022-09-09T07:21:29;4.77;;;1.87;;
11955;SDS011;6038;52.276;10.530;2022-09-09T07:23:55;5.67;;;1.57;;
11955;SDS011;6038;52.276;10.530;2022-09-09T07:26:23;4.60;;;1.63;;
11955;SDS011;6038;52.276;10.530;2022-09-09T07:28:50;4.27;;;1.50;;
11955;SDS011;6038;52.276;10.530;2022-09-09T07:31:17;4.00;;;1.50;;
11955;SDS011;6038;52.276;10.530;2022-09-09T07:33:43;3.77;;;1.50;;
11955;SDS011;6038;52.276;10.530;2022-09-09T07:36:12;3.47;;;1.47;;
11955;SDS011;6038;52.276;10.530;2022-09-09T07:38:39;3.23;;;1.70;;
11955;SDS011;6038;52.276;10.530;2022-09-09T07:41:05;2.33;;;1.27;;
11955;SDS011;6038;52.276;10.530;2022-09-09T07:43:33;3.83;;;1.53;;
11955;SDS011;6038;52.276;10.530;2022-09-09T07:46:00;4.30;;;1.57;;
11955;SDS011;6038;52.276;10.530;2022-09-09T07:48:26;5.53;;;1.40;;
11955;SDS011;6038;52.276;10.530;2022-09-09T07:50:52;4.27;;;1.50;;
11955;SDS011;6038;52.276;10.530;2022-09-09T07:53:18;3.30;;;1.37;;
11955;SDS011;6038;52.276;10.530;2022-09-09T07:55:45;2.45;;;1.30;;
11955;SDS011;6038;52.276;10.530;2022-09-09T07:58:11;3.00;;;1.20;;
11955;SDS011;6038;52.276;10.530;2022-09-09T08:00:37;6.82;;;1.65;;
11955;SDS011;6038;52.276;10.530;2022-09-09T08:03:04;3.42;;;1.83;;
11955;SDS011;6038;52.276;10.530;2022-09-09T08:05:31;5.10;;;1.83;;
11955;SDS011;6038;52.276;10.530;2022-09-09T08:07:57;3.95;;;1.88;;
11955;SDS011;6038;52.276;10.530;2022-09-09T08:10:23;4.57;;;1.58;;
11955;SDS011;6038;52.276;10.530;2022-09-09T08:12:48;7.43;;;1.42;;
11955;SDS011;6038;52.276;10.530;2022-09-09T08:15:14;4.35;;;1.63;;
11955;SDS011;6038;52.276;10.530;2022-09-09T08:17:40;3.28;;;1.25;;
11955;SDS011;6038;52.276;10.530;2022-09-09T08:20:08;5.18;;;1.50;;
11955;SDS011;6038;52.276;10.530;2022-09-09T08:22:34;3.00;;;1.40;;
11955;SDS011;6038;52.276;10.530;2022-09-09T08:25:02;2.42;;;1.10;;
11955;SDS011;6038;52.276;10.530;2022-09-09T08:27:31;3.05;;;1.30;;
11955;SDS011;6038;52.276;10.530;2022-09-09T08:29:57;3.40;;;1.33;;
11955;SDS011;6038;52.276;10.530;2022-09-09T08:32:24;3.08;;;1.20;;
11955;SDS011;6038;52.276;10.530;2022-09-09T08:34:51;4.43;;;1.23;;
11955;SDS011;6038;52.276;10.530;2022-09-09T08:37:17;2.60;;;1.00;;
11955;SDS011;6038;52.276;10.530;2022-09-09T08:39:44;3.15;;;1.15;;
11955;SDS011;6038;52.276;10.530;2022-09-09T08:44:50;3.33;;;1.30;;
11955;SDS011;6038;52.276;10.530;2022-09-09T08:52:25;2.80;;;1.40;;
11955;SDS011;6038;52.276;10.530;2022-09-09T08:54:53;2.63;;;1.20;;
11955;SDS011;6038;52.276;10.530;2022-09-09T08:57:23;5.65;;;1.50;;
11955;SDS011;6038;52.276;10.530;2022-09-09T08:59:51;6.05;;;1.63;;
11955;SDS011;6038;52.276;10.530;2022-09-09T09:02:27;4.00;;;1.38;;
11955;SDS011;6038;52.276;10.530;2022-09-09T09:05:02;4.28;;;1.30;;
11955;SDS011;6038;52.276;10.530;2022-09-09T09:07:37;2.97;;;1.50;;
11955;SDS011;6038;52.276;10.530;2022-09-09T09:12:38;5.75;;;1.30;;
11955;SDS011;6038;52.276;10.530;2022-09-09T09:15:17;3.65;;;1.40;;
11955;SDS011;6038;52.276;10.530;2022-09-09T09:17:43;4.75;;;1.60;;
11955;SDS011;6038;52.276;10.530;2022-09-09T09:20:14;3.28;;;1.30;;
11955;SDS011;6038;52.276;10.530;2022-09-09T09:22:48;4.32;;;1.50;;
11955;SDS011;6038;52.276;10.530;2022-09-09T09:27:44;2.45;;;1.15;;
11955;SDS011;6038;52.276;10.530;2022-09-09T09:30:14;2.38;;;1.60;;
11955;SDS011;6038;52.276;10.530;2022-09-09T09:32:41;6.18;;;1.60;;
11955;SDS011;6038;52.276;10.530;2022-09-09T09:35:10;5.07;;;1.73;;
11955;SDS011;6038;52.276;10.530;2022-09-09T09:37:37;8.75;;;1.50;;
11955;SDS011;6038;52.276;10.530;2022-09-09T09:40:47;2.70;;;1.27;;
11955;SDS011;6038;52.276;10.530;2022-09-09T09:42:59;5.47;;;1.30;;
11955;SDS011;6038;52.276;10.530;2022-09-09T09:48:03;4.68;;;1.60;;
11955;SDS011;6038;52.276;10.530;2022-09-09T09:50:30;4.57;;;1.25;;
11955;SDS011;6038;52.276;10.530;2022-09-09T09:52:57;3.78;;;1.25;;
11955;SDS011;6038;52.276;10.530;2022-09-09T09:55:23;3.20;;;1.30;;
11955;SDS011;6038;52.276;10.530;2022-09-09T09:57:50;5.07;;;1.30;;
11955;SDS011;6038;52.276;10.530;2022-09-09T10:00:17;3.38;;;1.50;;
11955;SDS011;6038;52.276;10.530;2022-09-09T10:02:44;3.10;;;1.25;;
11955;SDS011;6038;52.276;10.530;2022-09-09T10:08:11;5.80;;;2.30;;
11955;SDS011;6038;52.276;10.530;2022-09-09T10:10:40;6.75;;;2.00;;
11955;SDS011;6038;52.276;10.530;2022-09-09T10:13:16;4.47;;;1.70;;
11955;SDS011;6038;52.276;10.530;2022-09-09T10:15:48;5.55;;;1.60;;
11955;SDS011;6038;52.276;10.530;2022-09-09T10:18:33;5.20;;;1.50;;
11955;SDS011;6038;52.276;10.530;2022-09-09T10:34:17;3.65;;;1.40;;
11955;SDS011;6038;52.276;10.530;2022-09-09T10:36:32;4.82;;;1.52;;
11955;SDS011;6038;52.276;10.530;2022-09-09T10:38:59;4.75;;;1.40;;
11955;SDS011;6038;52.276;10.530;2022-09-09T10:44:26;2.95;;;1.38;;
11955;SDS011;6038;52.276;10.530;2022-09-09T10:47:17;5.57;;;1.90;;
11955;SDS011;6038;52.276;10.530;2022-09-09T10:52:36;3.70;;;1.50;;
11955;SDS011;6038;52.276;10.530;2022-09-09T11:00:27;4.13;;;1.65;;
11955;SDS011;6038;52.276;10.530;2022-09-09T11:02:57;4.65;;;1.75;;
11955;SDS011;6038;52.276;10.530;2022-09-09T11:05:29;6.90;;;1.70;;
11955;SDS011;6038;52.276;10.530;2022-09-09T11:08:01;5.88;;;1.75;;
11955;SDS011;6038;52.276;10.530;2022-09-09T11:13:11;4.35;;;1.83;;
11955;SDS011;6038;52.276;10.530;2022-09-09T11:15:49;6.95;;;2.53;;
11955;SDS011;6038;52.276;10.530;2022-09-09T11:18:22;6.35;;;2.65;;
11955;SDS011;6038;52.276;10.530;2022-09-09T11:20:50;4.18;;;2.60;;
11955;SDS011;6038;52.276;10.530;2022-09-09T11:23:22;4.00;;;2.50;;
11955;SDS011;6038;52.276;10.530;2022-09-09T11:25:51;7.43;;;2.70;;
11955;SDS011;6038;52.276;10.530;2022-09-09T11:33:35;4.72;;;1.80;;
11955;SDS011;6038;52.276;10.530;2022-09-09T11:38:31;3.55;;;1.50;;
11955;SDS011;6038;52.276;10.530;2022-09-09T11:41:03;2.83;;;1.20;;
11955;SDS011;6038;52.276;10.530;2022-09-09T11:43:33;3.15;;;1.27;;
11955;SDS011;6038;52.276;10.530;2022-09-09T11:46:04;3.65;;;1.23;;
11955;SDS011;6038;52.276;10.530;2022-09-09T11:48:34;3.70;;;1.08;;
11955;SDS011;6038;52.276;10.530;2022-09-09T11:53:30;3.47;;;1.63;;
11955;SDS011;6038;52.276;10.530;2022-09-09T11:56:30;5.78;;;1.80;;
11955;SDS011;6038;52.276;10.530;2022-09-09T11:58:59;3.72;;;1.27;;
11955;SDS011;6038;52.276;10.530;2022-09-09T12:04:01;1.65;;;1.02;;
11955;SDS011;6038;52.276;10.530;2022-09-09T12:06:31;6.32;;;1.10;;
11955;SDS011;6038;52.276;10.530;2022-09-09T12:09:05;3.13;;;1.30;;
11955;SDS011;6038;52.276;10.530;2022-09-09T12:11:32;3.80;;;1.40;;
11955;SDS011;6038;52.276;10.530;2022-09-09T12:13:58;4.47;;;1.50;;
11955;SDS011;6038;52.276;10.530;2022-09-09T12:16:35;4.32;;;1.17;;
11955;SDS011;6038;52.276;10.530;2022-09-09T12:19:24;5.05;;;1.50;;
11955;SDS011;6038;52.276;10.530;2022-09-09T12:22:00;4.97;;;1.45;;
11955;SDS011;6038;52.276;10.530;2022-09-09T12:24:30;3.42;;;1.42;;
11955;SDS011;6038;52.276;10.530;2022-09-09T12:27:11;3.15;;;1.23;;
11955;SDS011;6038;52.276;10.530;2022-09-09T12:29:46;3.90;;;1.35;;
11955;SDS011;6038;52.276;10.530;2022-09-09T12:32:15;4.80;;;1.45;;
11955;SDS011;6038;52.276;10.530;2022-09-09T12:37:18;5.07;;;2.20;;
11955;SDS011;6038;52.276;10.530;2022-09-09T12:39:49;4.25;;;2.00;;
11955;SDS011;6038;52.276;10.530;2022-09-09T12:42:18;5.47;;;1.70;;
11955;SDS011;6038;52.276;10.530;2022-09-09T12:44:51;4.80;;;1.30;;
11955;SDS011;6038;52.276;10.530;2022-09-09T12:47:17;4.40;;;1.45;;
11955;SDS011;6038;52.276;10.530;2022-09-09T12:49:44;7.38;;;1.85;;
11955;SDS011;6038;52.276;10.530;2022-09-09T12:52:15;2.67;;;1.48;;
11955;SDS011;6038;52.276;10.530;2022-09-09T12:54:45;2.92;;;1.30;;
11955;SDS011;6038;52.276;10.530;2022-09-09T12:57:12;4.72;;;1.48;;
11955;SDS011;6038;52.276;10.530;2022-09-09T12:59:40;6.18;;;1.60;;
11955;SDS011;6038;52.276;10.530;2022-09-09T13:02:14;4.57;;;1.58;;
11955;SDS011;6038;52.276;10.530;2022-09-09T13:04:42;4.93;;;1.23;;
11955;SDS011;6038;52.276;10.530;2022-09-09T13:07:09;4.28;;;1.30;;
11955;SDS011;6038;52.276;10.530;2022-09-09T13:09:36;4.20;;;1.30;;
11955;SDS011;6038;52.276;10.530;2022-09-09T13:12:02;3.50;;;1.05;;
11955;SDS011;6038;52.276;10.530;2022-09-09T13:14:34;4.30;;;1.30;;
11955;SDS011;6038;52.276;10.530;2022-09-09T13:17:05;2.78;;;1.40;;
11955;SDS011;6038;52.276;10.530;2022-09-09T13:19:36;5.13;;;1.48;;
11955;SDS011;6038;52.276;10.530;2022-09-09T13:27:32;2.83;;;1.20;;
11955;SDS011;6038;52.276;10.530;2022-09-09T13:29:59;2.05;;;0.95;;
11955;SDS011;6038;52.276;10.530;2022-09-09T13:32:26;4.00;;;0.95;;
11955;SDS011;6038;52.276;10.530;2022-09-09T13:34:53;2.67;;;1.30;;
11955;SDS011;6038;52.276;10.530;2022-09-09T13:37:24;5.78;;;1.70;;
11955;SDS011;6038;52.276;10.530;2022-09-09T13:39:52;2.83;;;1.70;;
11955;SDS011;6038;52.276;10.530;2022-09-09T13:42:24;2.20;;;1.33;;
11955;SDS011;6038;52.276;10.530;2022-09-09T13:44:51;2.70;;;1.10;;
11955;SDS011;6038;52.276;10.530;2022-09-09T13:47:18;2.67;;;1.30;;
11955;SDS011;6038;52.276;10.530;2022-09-09T13:49:48;2.30;;;1.10;;
11955;SDS011;6038;52.276;10.530;2022-09-09T13:52:15;2.00;;;1.15;;
11955;SDS011;6038;52.276;10.530;2022-09-09T13:54:48;9.60;;;1.27;;
11955;SDS011;6038;52.276;10.530;2022-09-09T13:57:15;1.63;;;0.85;;
11955;SDS011;6038;52.276;10.530;2022-09-09T13:59:43;4.95;;;1.02;;
11955;SDS011;6038;52.276;10.530;2022-09-09T14:02:09;2.72;;;1.02;;
11955;SDS011;6038;52.276;10.530;2022-09-09T14:04:35;2.50;;;0.93;;
11955;SDS011;6038;52.276;10.530;2022-09-09T14:07:01;2.22;;;0.80;;
11955;SDS011;6038;52.276;10.530;2022-09-09T14:09:27;1.90;;;1.00;;
11955;SDS011;6038;52.276;10.530;2022-09-09T14:11:53;3.28;;;1.00;;
11955;SDS011;6038;52.276;10.530;2022-09-09T14:14:22;2.28;;;0.90;;
11955;SDS011;6038;52.276;10.530;2022-09-09T14:16:48;2.58;;;0.93;;
11955;SDS011;6038;52.276;10.530;2022-09-09T14:19:14;3.40;;;1.20;;
11955;SDS011;6038;52.276;10.530;2022-09-09T14:21:40;3.30;;;1.13;;
11955;SDS011;6038;52.276;10.530;2022-09-09T14:24:06;2.03;;;0.90;;
11955;SDS011;6038;52.276;10.530;2022-09-09T14:26:32;2.17;;;1.00;;
11955;SDS011;6038;52.276;10.530;2022-09-09T14:28:58;3.28;;;1.20;;
11955;SDS011;6038;52.276;10.530;2022-09-09T14:31:26;4.00;;;1.13;;
11955;SDS011;6038;52.276;10.530;2022-09-09T14:33:52;2.97;;;1.27;;
11955;SDS011;6038;52.276;10.530;2022-09-09T14:36:18;3.13;;;1.00;;
11955;SDS011;6038;52.276;10.530;2022-09-09T14:38:44;2.83;;;1.20;;
11955;SDS011;6038;52.276;10.530;2022-09-09T14:41:11;4.95;;;1.27;;
11955;SDS011;6038;52.276;10.530;2022-09-09T14:43:38;4.88;;;1.30;;
11955;SDS011;6038;52.276;10.530;2022-09-09T14:46:05;2.50;;;1.20;;
11955;SDS011;6038;52.276;10.530;2022-09-09T14:48:31;2.28;;;1.10;;
11955;SDS011;6038;52.276;10.530;2022-09-09T14:51:04;1.90;;;1.20;;
11955;SDS011;6038;52.276;10.530;2022-09-09T14:53:30;2.58;;;1.23;;
11955;SDS011;6038;52.276;10.530;2022-09-09T14:56:02;2.58;;;1.10;;
11955;SDS011;6038;52.276;10.530;2022-09-09T14:58:30;1.65;;;1.10;;
11955;SDS011;6038;52.276;10.530;2022-09-09T15:01:01;2.50;;;1.20;;
11955;SDS011;6038;52.276;10.530;2022-09-09T15:03:27;2.88;;;1.13;;
11955;SDS011;6038;52.276;10.530;2022-09-09T15:05:53;3.03;;;1.20;;
11955;SDS011;6038;52.276;10.530;2022-09-09T15:08:19;3.72;;;1.60;;
11955;SDS011;6038;52.276;10.530;2022-09-09T15:10:45;3.22;;;1.77;;
11955;SDS011;6038;52.276;10.530;2022-09-09T15:13:12;5.57;;;1.85;;
11955;SDS011;6038;52.276;10.530;2022-09-09T15:15:41;6.07;;;1.48;;
11955;SDS011;6038;52.276;10.530;2022-09-09T15:18:08;3.45;;;1.48;;
11955;SDS011;6038;52.276;10.530;2022-09-09T15:20:35;6.88;;;1.63;;
11955;SDS011;6038;52.276;10.530;2022-09-09T15:23:02;2.58;;;1.50;;
11955;SDS011;6038;52.276;10.530;2022-09-09T15:25:28;2.05;;;1.20;;
11955;SDS011;6038;52.276;10.530;2022-09-09T15:27:54;2.42;;;1.27;;
11955;SDS011;6038;52.276;10.530;2022-09-09T15:30:21;3.58;;;1.38;;
11955;SDS011;6038;52.276;10.530;2022-09-09T15:32:47;3.20;;;1.50;;
11955;SDS011;6038;52.276;10.530;2022-09-09T15:35:13;4.20;;;1.40;;
11955;SDS011;6038;52.276;10.530;2022-09-09T15:37:40;3.10;;;1.30;;
11955;SDS011;6038;52.276;10.530;2022-09-09T15:40:06;2.30;;;1.23;;
11955;SDS011;6038;52.276;10.530;2022-09-09T15:42:32;3.55;;;1.30;;
11955;SDS011;6038;52.276;10.530;2022-09-09T15:44:58;5.45;;;1.40;;
11955;SDS011;6038;52.276;10.530;2022-09-09T15:47:24;4.28;;;1.33;;
11955;SDS011;6038;52.276;10.530;2022-09-09T15:49:51;1.98;;;1.30;;
11955;SDS011;6038;52.276;10.530;2022-09-09T15:52:17;3.88;;;1.58;;
11955;SDS011;6038;52.276;10.530;2022-09-09T15:54:43;1.90;;;1.20;;
11955;SDS011;6038;52.276;10.530;2022-09-09T15:57:11;2.55;;;1.40;;
11955;SDS011;6038;52.276;10.530;2022-09-09T15:59:37;2.13;;;1.45;;
11955;SDS011;6038;52.276;10.530;2022-09-09T16:02:03;2.90;;;1.40;;
11955;SDS011;6038;52.276;10.530;2022-09-09T16:04:30;2.20;;;1.33;;
11955;SDS011;6038;52.276;10.530;2022-09-09T16:09:23;2.17;;;1.40;;
11955;SDS011;6038;52.276;10.530;2022-09-09T16:11:49;5.25;;;1.45;;
11955;SDS011;6038;52.276;10.530;2022-09-09T16:14:19;3.42;;;1.42;;
11955;SDS011;6038;52.276;10.530;2022-09-09T16:16:45;4.82;;;1.60;;
11955;SDS011;6038;52.276;10.530;2022-09-09T16:19:11;4.22;;;1.40;;
11955;SDS011;6038;52.276;10.530;2022-09-09T16:21:39;1.83;;;1.23;;
11955;SDS011;6038;52.276;10.530;2022-09-09T16:24:05;3.10;;;1.55;;
11955;SDS011;6038;52.276;10.530;2022-09-09T16:26:33;2.13;;;1.27;;
11955;SDS011;6038;52.276;10.530;2022-09-09T16:28:59;4.88;;;1.50;;
11955;SDS011;6038;52.276;10.530;2022-09-09T16:31:26;4.63;;;1.73;;
11955;SDS011;6038;52.276;10.530;2022-09-09T16:33:53;2.75;;;1.10;;
11955;SDS011;6038;52.276;10.530;2022-09-09T16:36:20;2.88;;;1.45;;
11955;SDS011;6038;52.276;10.530;2022-09-09T16:38:46;4.63;;;1.58;;
11955;SDS011;6038;52.276;10.530;2022-09-09T16:41:13;2.38;;;1.15;;
11955;SDS011;6038;52.276;10.530;2022-09-09T16:43:39;4.93;;;1.38;;
11955;SDS011;6038;52.276;10.530;2022-09-09T16:48:37;2.97;;;1.15;;
11955;SDS011;6038;52.276;10.530;2022-09-09T16:51:04;4.10;;;1.20;;
11955;SDS011;6038;52.276;10.530;2022-09-09T16:53:31;2.28;;;1.23;;